sensor_id;sensor_type;location;lat;lon;timestamp;pressure;altitude;pressure_sealevel;temperature;humidity
19624;BME280;9959;49.798;9.928;2023-10-31T00:00:12;97886.25;;;11.90;100.00
19624;BME280;9959;49.798;9.928;2023-10-31T00:02:39;97878.94;;;11.85;100.00
19624;BME280;9959;49.798;9.928;2023-10-31T00:05:06;97886.78;;;11.87;100.00
19624;BME280;9959;49.798;9.928;2023-10-31T00:07:33;97889.19;;;11.83;100.00
19624;BME280;9959;49.798;9.928;2023-10-31T00:10:01;97889.19;;;11.83;100.00
19624;BME280;9959;49.798;9.928;2023-10-31T00:12:28;97893.75;;;11.78;100.00
19624;BME280;9959;49.798;9.928;2023-10-31T00:14:55;97887.00;;;11.80;100.00
19624;BME280;9959;49.798;9.928;2023-10-31T00:17:22;97881.31;;;11.77;100.00
19624;BME280;9959;49.798;9.928;2023-10-31T00:19:49;97884.84;;;11.82;100.00
19624;BME280;9959;49.798;9.928;2023-10-31T00:22:16;97890.25;;;11.82;100.00
19624;BME280;9959;49.798;9.928;2023-10-31T00:24:43;97899.94;;;11.78;100.00
19624;BME280;9959;49.798;9.928;2023-10-31T00:27:10;97895.59;;;11.72;100.00
19624;BME280;9959;49.798;9.928;2023-10-31T00:29:37;97903.13;;;11.70;100.00
19624;BME280;9959;49.798;9.928;2023-10-31T00:32:04;97910.66;;;11.68;100.00
19624;BME280;9959;49.798;9.928;2023-10-31T00:34:32;97916.59;;;11.65;100.00
19624;BME280;9959;49.798;9.928;2023-10-31T00:36:59;97921.72;;;11.67;100.00
19624;BME280;9959;49.798;9.928;2023-10-31T00:39:26;97919.31;;;11.70;100.00
19624;BME280;9959;49.798;9.928;2023-10-31T00:41:53;97918.78;;;11.73;100.00
19624;BME280;9959;49.798;9.928;2023-10-31T00:44:20;97917.16;;;11.72;100.00
19624;BME280;9959;49.798;9.928;2023-10-31T00:46:47;97916.06;;;11.68;100.00
19624;BME280;9959;49.798;9.928;2023-10-31T00:49:14;97927.38;;;11.65;100.00
19624;BME280;9959;49.798;9.928;2023-10-31T00:51:41;97929.50;;;11.63;100.00
19624;BME280;9959;49.798;9.928;2023-10-31T00:54:08;97919.25;;;11.60;100.00
19624;BME280;9959;49.798;9.928;2023-10-31T00:56:36;97934.38;;;11.66;100.00
19624;BME280;9959;49.798;9.928;2023-10-31T00:59:03;97929.28;;;11.70;100.00
19624;BME280;9959;49.798;9.928;2023-10-31T01:01:30;97921.97;;;11.65;100.00
19624;BME280;9959;49.798;9.928;2023-10-31T01:03:57;97922.78;;;11.66;100.00
19624;BME280;9959;49.798;9.928;2023-10-31T01:06:24;97919.31;;;11.70;100.00
19624;BME280;9959;49.798;9.928;2023-10-31T01:08:51;97937.09;;;11.66;100.00
19624;BME280;9959;49.798;9.928;2023-10-31T01:11:18;97923.81;;;11.60;100.00
19624;BME280;9959;49.798;9.928;2023-10-31T01:13:45;97933.75;;;11.54;100.00
19624;BME280;9959;49.798;9.928;2023-10-31T01:16:12;97935.91;;;11.52;100.00
19624;BME280;9959;49.798;9.928;2023-10-31T01:18:39;97935.91;;;11.47;100.00
19624;BME280;9959;49.798;9.928;2023-10-31T01:21:06;97936.88;;;11.36;100.00
19624;BME280;9959;49.798;9.928;2023-10-31T01:23:33;97931.44;;;11.31;100.00
19624;BME280;9959;49.798;9.928;2023-10-31T01:26:00;97934.13;;;11.31;100.00
19624;BME280;9959;49.798;9.928;2023-10-31T01:28:26;97939.56;;;11.36;100.00
19624;BME280;9959;49.798;9.928;2023-10-31T01:30:53;97943.34;;;11.35;100.00
19624;BME280;9959;49.798;9.928;2023-10-31T01:33:20;97953.53;;;11.28;100.00
19624;BME280;9959;49.798;9.928;2023-10-31T01:35:48;97955.66;;;11.21;100.00
19624;BME280;9959;49.798;9.928;2023-10-31T01:38:14;97956.09;;;11.12;100.00
19624;BME280;9959;49.798;9.928;2023-10-31T01:40:41;97962.91;;;11.20;100.00
19624;BME280;9959;49.798;9.928;2023-10-31T01:43:09;97968.50;;;11.13;100.00
19624;BME280;9959;49.798;9.928;2023-10-31T01:45:35;97957.47;;;11.15;100.00
19624;BME280;9959;49.798;9.928;2023-10-31T01:48:03;97955.00;;;11.08;100.00
19624;BME280;9959;49.798;9.928;2023-10-31T01:50:30;97951.13;;;10.99;100.00
19624;BME280;9959;49.798;9.928;2023-10-31T01:52:57;97963.53;;;11.00;100.00
19624;BME280;9959;49.798;9.928;2023-10-31T01:55:24;97951.13;;;10.99;100.00
19624;BME280;9959;49.798;9.928;2023-10-31T01:57:54;97949.44;;;10.88;100.00
19624;BME280;9959;49.798;9.928;2023-10-31T02:00:21;97960.16;;;10.83;100.00
19624;BME280;9959;49.798;9.928;2023-10-31T02:02:52;97959.59;;;10.81;100.00
19624;BME280;9959;49.798;9.928;2023-10-31T02:05:20;97946.00;;;10.71;100.00
19624;BME280;9959;49.798;9.928;2023-10-31T02:07:47;97954.09;;;10.71;100.00
19624;BME280;9959;49.798;9.928;2023-10-31T02:10:14;97947.06;;;10.70;100.00
19624;BME280;9959;49.798;9.928;2023-10-31T02:12:42;97960.50;;;10.65;100.00
19624;BME280;9959;49.798;9.928;2023-10-31T02:15:09;97956.44;;;10.62;100.00
19624;BME280;9959;49.798;9.928;2023-10-31T02:17:36;97969.66;;;10.64;100.00
19624;BME280;9959;49.798;9.928;2023-10-31T02:20:03;97978.66;;;10.52;100.00
19624;BME280;9959;49.798;9.928;2023-10-31T02:22:30;97976.59;;;10.60;100.00
19624;BME280;9959;49.798;9.928;2023-10-31T02:24:57;97971.66;;;10.51;100.00
19624;BME280;9959;49.798;9.928;2023-10-31T02:27:24;97984.47;;;10.39;100.00
19624;BME280;9959;49.798;9.928;2023-10-31T02:29:51;97993.22;;;10.30;100.00
19624;BME280;9959;49.798;9.928;2023-10-31T02:32:18;97996.66;;;10.25;100.00
19624;BME280;9959;49.798;9.928;2023-10-31T02:34:45;98004.16;;;10.23;100.00
19624;BME280;9959;49.798;9.928;2023-10-31T02:37:12;98004.06;;;10.18;100.00
19624;BME280;9959;49.798;9.928;2023-10-31T02:39:40;98012.25;;;10.06;100.00
19624;BME280;9959;49.798;9.928;2023-10-31T02:42:07;98018.44;;;10.07;100.00
19624;BME280;9959;49.798;9.928;2023-10-31T02:44:36;98018.44;;;10.07;100.00
19624;BME280;9959;49.798;9.928;2023-10-31T02:47:04;98018.94;;;10.04;100.00
19624;BME280;9959;49.798;9.928;2023-10-31T02:49:31;98025.47;;;10.08;100.00
19624;BME280;9959;49.798;9.928;2023-10-31T02:51:58;98045.78;;;9.99;100.00
19624;BME280;9959;49.798;9.928;2023-10-31T02:54:25;98050.09;;;10.00;100.00
19624;BME280;9959;49.798;9.928;2023-10-31T02:56:52;98054.34;;;9.96;100.00
19624;BME280;9959;49.798;9.928;2023-10-31T02:59:18;98050.81;;;9.95;100.00
19624;BME280;9959;49.798;9.928;2023-10-31T03:01:45;98055.50;;;9.83;100.00
19624;BME280;9959;49.798;9.928;2023-10-31T03:04:12;98053.34;;;10.02;100.00
19624;BME280;9959;49.798;9.928;2023-10-31T03:06:39;98059.38;;;9.92;100.00
19624;BME280;9959;49.798;9.928;2023-10-31T03:09:07;98067.78;;;9.96;100.00
19624;BME280;9959;49.798;9.928;2023-10-31T03:11:33;98076.81;;;9.90;100.00
19624;BME280;9959;49.798;9.928;2023-10-31T03:14:00;98078.47;;;9.91;100.00
19624;BME280;9959;49.798;9.928;2023-10-31T03:16:27;98075.28;;;9.94;100.00
19624;BME280;9959;49.798;9.928;2023-10-31T03:18:54;98076.94;;;9.78;100.00
19624;BME280;9959;49.798;9.928;2023-10-31T03:21:21;98073.06;;;9.91;100.00
19624;BME280;9959;49.798;9.928;2023-10-31T03:23:49;98083.69;;;9.80;100.00
19624;BME280;9959;49.798;9.928;2023-10-31T03:26:16;98076.81;;;9.90;100.00
19624;BME280;9959;49.798;9.928;2023-10-31T03:28:43;98077.66;;;9.73;100.00
19624;BME280;9959;49.798;9.928;2023-10-31T03:31:12;98078.22;;;9.75;100.00
19624;BME280;9959;49.798;9.928;2023-10-31T03:33:40;98083.03;;;9.73;100.00
19624;BME280;9959;49.798;9.928;2023-10-31T03:36:08;98088.34;;;9.68;100.00
19624;BME280;9959;49.798;9.928;2023-10-31T03:38:36;98075.38;;;9.65;100.00
19624;BME280;9959;49.798;9.928;2023-10-31T03:41:03;98083.44;;;9.65;100.00
19624;BME280;9959;49.798;9.928;2023-10-31T03:43:30;98089.47;;;9.72;100.00
19624;BME280;9959;49.798;9.928;2023-10-31T03:45:57;98091.09;;;9.73;100.00
19624;BME280;9959;49.798;9.928;2023-10-31T03:48:24;98093.47;;;9.70;100.00
19624;BME280;9959;49.798;9.928;2023-10-31T03:50:52;98101.78;;;9.68;100.00
19624;BME280;9959;49.798;9.928;2023-10-31T03:53:19;98106.50;;;9.61;100.00
19624;BME280;9959;49.798;9.928;2023-10-31T03:55:46;98100.81;;;9.74;100.00
19624;BME280;9959;49.798;9.928;2023-10-31T03:58:12;98113.25;;;9.64;100.00
19624;BME280;9959;49.798;9.928;2023-10-31T04:00:39;98112.44;;;9.63;100.00
19624;BME280;9959;49.798;9.928;2023-10-31T04:03:08;98114.16;;;9.69;100.00
19624;BME280;9959;49.798;9.928;2023-10-31T04:05:35;98126.47;;;9.65;100.00
19624;BME280;9959;49.798;9.928;2023-10-31T04:08:02;98127.38;;;9.71;100.00
19624;BME280;9959;49.798;9.928;2023-10-31T04:10:29;98128.66;;;9.68;100.00
19624;BME280;9959;49.798;9.928;2023-10-31T04:12:56;98127.69;;;9.74;100.00
19624;BME280;9959;49.798;9.928;2023-10-31T04:15:23;98121.03;;;9.77;100.00
19624;BME280;9959;49.798;9.928;2023-10-31T04:17:49;98120.44;;;9.75;100.00
19624;BME280;9959;49.798;9.928;2023-10-31T04:20:16;98118.56;;;9.75;100.00
19624;BME280;9959;49.798;9.928;2023-10-31T04:22:44;98107.34;;;9.78;100.00
19624;BME280;9959;49.798;9.928;2023-10-31T04:25:11;98107.81;;;9.75;100.00
19624;BME280;9959;49.798;9.928;2023-10-31T04:27:38;98117.34;;;9.66;100.00
19624;BME280;9959;49.798;9.928;2023-10-31T04:30:06;98110.84;;;9.79;100.00
19624;BME280;9959;49.798;9.928;2023-10-31T04:32:33;98110.59;;;9.80;100.00
19624;BME280;9959;49.798;9.928;2023-10-31T04:35:00;98119.06;;;9.72;100.00
19624;BME280;9959;49.798;9.928;2023-10-31T04:37:27;98126.88;;;9.74;100.00
19624;BME280;9959;49.798;9.928;2023-10-31T04:39:55;98134.22;;;9.78;100.00
19624;BME280;9959;49.798;9.928;2023-10-31T04:42:23;98132.69;;;9.82;100.00
19624;BME280;9959;49.798;9.928;2023-10-31T04:44:49;98127.78;;;9.79;100.00
19624;BME280;9959;49.798;9.928;2023-10-31T04:47:16;98126.41;;;9.94;100.00
19624;BME280;9959;49.798;9.928;2023-10-31T04:49:43;98122.66;;;9.95;100.00
19624;BME280;9959;49.798;9.928;2023-10-31T04:52:10;98121.50;;;9.91;100.00
19624;BME280;9959;49.798;9.928;2023-10-31T04:54:39;98133.88;;;9.92;100.00
19624;BME280;9959;49.798;9.928;2023-10-31T04:57:07;98122.66;;;9.95;100.00
19624;BME280;9959;49.798;9.928;2023-10-31T04:59:34;98133.25;;;10.01;100.00
19624;BME280;9959;49.798;9.928;2023-10-31T05:02:01;98129.75;;;10.01;100.00
19624;BME280;9959;49.798;9.928;2023-10-31T05:04:28;98131.28;;;9.97;100.00
19624;BME280;9959;49.798;9.928;2023-10-31T05:06:55;98150.03;;;9.92;100.00
19624;BME280;9959;49.798;9.928;2023-10-31T05:09:22;98139.28;;;9.92;100.00
19624;BME280;9959;49.798;9.928;2023-10-31T05:11:50;98130.63;;;9.90;100.00
19624;BME280;9959;49.798;9.928;2023-10-31T05:14:17;98142.69;;;9.87;100.00
19624;BME280;9959;49.798;9.928;2023-10-31T05:16:44;98142.44;;;9.89;100.00
19624;BME280;9959;49.798;9.928;2023-10-31T05:19:11;98142.38;;;9.83;100.00
19624;BME280;9959;49.798;9.928;2023-10-31T05:21:38;98147.50;;;9.85;100.00
19624;BME280;9959;49.798;9.928;2023-10-31T05:24:06;98150.19;;;9.85;100.00
19624;BME280;9959;49.798;9.928;2023-10-31T05:26:33;98158.81;;;9.87;100.00
19624;BME280;9959;49.798;9.928;2023-10-31T05:29:00;98158.81;;;9.87;100.00
19624;BME280;9959;49.798;9.928;2023-10-31T05:31:27;98154.34;;;9.93;100.00
19624;BME280;9959;49.798;9.928;2023-10-31T05:33:57;98152.47;;;9.93;100.00
19624;BME280;9959;49.798;9.928;2023-10-31T05:36:25;98164.88;;;9.94;100.00
19624;BME280;9959;49.798;9.928;2023-10-31T05:38:52;98155.50;;;9.97;100.00
19624;BME280;9959;49.798;9.928;2023-10-31T05:41:19;98153.28;;;9.94;100.00
19624;BME280;9959;49.798;9.928;2023-10-31T05:43:47;98165.53;;;10.01;100.00
19624;BME280;9959;49.798;9.928;2023-10-31T05:46:14;98165.28;;;10.03;100.00
19624;BME280;9959;49.798;9.928;2023-10-31T05:48:44;98167.50;;;10.06;100.00
19624;BME280;9959;49.798;9.928;2023-10-31T05:51:18;98166.34;;;10.02;100.00
19624;BME280;9959;49.798;9.928;2023-10-31T05:53:47;98176.28;;;10.01;100.00
19624;BME280;9959;49.798;9.928;2023-10-31T05:56:15;98177.94;;;10.02;100.00
19624;BME280;9959;49.798;9.928;2023-10-31T05:58:43;98160.63;;;9.98;100.00
19624;BME280;9959;49.798;9.928;2023-10-31T06:01:10;98176.06;;;10.03;100.00
19624;BME280;9959;49.798;9.928;2023-10-31T06:03:37;98177.44;;;10.05;100.00
19624;BME280;9959;49.798;9.928;2023-10-31T06:06:08;98181.28;;;10.09;100.00
19624;BME280;9959;49.798;9.928;2023-10-31T06:08:36;98177.44;;;10.05;100.00
19624;BME280;9959;49.798;9.928;2023-10-31T06:11:03;98180.72;;;10.07;100.00
19624;BME280;9959;49.798;9.928;2023-10-31T06:13:30;98186.91;;;10.08;100.00
19624;BME280;9959;49.798;9.928;2023-10-31T06:15:58;98183.97;;;10.09;100.00
19624;BME280;9959;49.798;9.928;2023-10-31T06:18:28;98195.59;;;10.15;100.00
19624;BME280;9959;49.798;9.928;2023-10-31T06:20:55;98207.94;;;10.11;100.00
19624;BME280;9959;49.798;9.928;2023-10-31T06:23:22;98208.13;;;10.21;100.00
19624;BME280;9959;49.798;9.928;2023-10-31T06:25:49;98213.38;;;10.16;100.00
19624;BME280;9959;49.798;9.928;2023-10-31T06:28:17;98227.66;;;10.16;100.00
19624;BME280;9959;49.798;9.928;2023-10-31T06:30:43;98233.97;;;10.22;100.00
19624;BME280;9959;49.798;9.928;2023-10-31T06:33:11;98231.28;;;10.22;100.00
19624;BME280;9959;49.798;9.928;2023-10-31T06:35:39;98229.66;;;10.21;100.00
19624;BME280;9959;49.798;9.928;2023-10-31T06:38:06;98223.78;;;10.24;100.00
19624;BME280;9959;49.798;9.928;2023-10-31T06:40:33;98231.84;;;10.24;100.00
19624;BME280;9959;49.798;9.928;2023-10-31T06:43:01;98236.19;;;10.25;100.00
19624;BME280;9959;49.798;9.928;2023-10-31T06:45:28;98236.66;;;10.22;100.00
19624;BME280;9959;49.798;9.928;2023-10-31T06:47:55;98238.31;;;10.23;100.00
19624;BME280;9959;49.798;9.928;2023-10-31T06:50:24;98240.50;;;10.26;100.00
19624;BME280;9959;49.798;9.928;2023-10-31T06:52:51;98253.41;;;10.24;100.00
19624;BME280;9959;49.798;9.928;2023-10-31T06:55:18;98252.44;;;10.30;100.00
19624;BME280;9959;49.798;9.928;2023-10-31T06:57:45;98251.69;;;10.35;100.00
19624;BME280;9959;49.798;9.928;2023-10-31T07:00:12;98253.09;;;10.37;100.00
19624;BME280;9959;49.798;9.928;2023-10-31T07:02:39;98259.59;;;10.41;100.00
19624;BME280;9959;49.798;9.928;2023-10-31T07:05:07;98266.03;;;10.40;100.00
19624;BME280;9959;49.798;9.928;2023-10-31T07:07:34;98259.75;;;10.51;100.00
19624;BME280;9959;49.798;9.928;2023-10-31T07:10:01;98276.41;;;10.48;100.00
19624;BME280;9959;49.798;9.928;2023-10-31T07:12:28;98271.09;;;10.54;100.00
19624;BME280;9959;49.798;9.928;2023-10-31T07:14:55;98278.63;;;10.51;100.00
19624;BME280;9959;49.798;9.928;2023-10-31T07:17:25;98288.31;;;10.52;100.00
19624;BME280;9959;49.798;9.928;2023-10-31T07:19:53;98293.78;;;10.58;100.00
19624;BME280;9959;49.798;9.928;2023-10-31T07:22:20;98289.97;;;10.54;100.00
19624;BME280;9959;49.798;9.928;2023-10-31T07:24:49;98292.41;;;10.55;100.00
19624;BME280;9959;49.798;9.928;2023-10-31T07:27:16;98291.19;;;10.63;100.00
19624;BME280;9959;49.798;9.928;2023-10-31T07:29:43;98292.81;;;10.64;100.00
19624;BME280;9959;49.798;9.928;2023-10-31T07:32:11;98298.69;;;10.61;100.00
19624;BME280;9959;49.798;9.928;2023-10-31T07:34:41;98304.09;;;10.61;100.00
19624;BME280;9959;49.798;9.928;2023-10-31T07:37:09;98306.53;;;10.62;100.00
19624;BME280;9959;49.798;9.928;2023-10-31T07:39:36;98312.06;;;10.56;100.00
19624;BME280;9959;49.798;9.928;2023-10-31T07:42:03;98316.50;;;10.62;100.00
19624;BME280;9959;49.798;9.928;2023-10-31T07:44:30;98328.06;;;10.62;100.00
19624;BME280;9959;49.798;9.928;2023-10-31T07:46:57;98329.88;;;10.57;100.00
19624;BME280;9959;49.798;9.928;2023-10-31T07:49:24;98327.00;;;10.46;100.00
19624;BME280;9959;49.798;9.928;2023-10-31T07:51:51;98318.44;;;10.49;100.00
19624;BME280;9959;49.798;9.928;2023-10-31T07:54:18;98326.69;;;10.60;100.00
19624;BME280;9959;49.798;9.928;2023-10-31T07:56:46;98329.19;;;10.49;100.00
19624;BME280;9959;49.798;9.928;2023-10-31T07:59:13;98334.91;;;10.53;100.00
19624;BME280;9959;49.798;9.928;2023-10-31T08:01:40;98335.06;;;10.46;100.00
19624;BME280;9959;49.798;9.928;2023-10-31T08:04:06;98342.56;;;10.44;100.00
19624;BME280;9959;49.798;9.928;2023-10-31T08:06:34;98352.38;;;10.50;100.00
19624;BME280;9959;49.798;9.928;2023-10-31T08:09:01;98353.81;;;10.41;100.00
19624;BME280;9959;49.798;9.928;2023-10-31T08:11:32;98357.19;;;10.48;100.00
19624;BME280;9959;49.798;9.928;2023-10-31T08:13:59;98363.63;;;10.47;100.00
19624;BME280;9959;49.798;9.928;2023-10-31T08:16:26;98364.28;;;10.55;100.00
19624;BME280;9959;49.798;9.928;2023-10-31T08:18:54;98361.78;;;10.65;100.00
19624;BME280;9959;49.798;9.928;2023-10-31T08:21:21;98352.06;;;10.64;100.00
19624;BME280;9959;49.798;9.928;2023-10-31T08:23:48;98362.19;;;10.73;100.00
19624;BME280;9959;49.798;9.928;2023-10-31T08:26:15;98371.16;;;10.79;100.00
19624;BME280;9959;49.798;9.928;2023-10-31T08:28:42;98367.91;;;10.77;100.00
19624;BME280;9959;49.798;9.928;2023-10-31T08:31:09;98378.38;;;10.90;100.00
19624;BME280;9959;49.798;9.928;2023-10-31T08:33:36;98381.47;;;10.82;100.00
19624;BME280;9959;49.798;9.928;2023-10-31T08:36:03;98393.97;;;10.88;100.00
19624;BME280;9959;49.798;9.928;2023-10-31T08:38:30;98383.91;;;11.00;100.00
19624;BME280;9959;49.798;9.928;2023-10-31T08:40:58;98393.03;;;10.99;100.00
19624;BME280;9959;49.798;9.928;2023-10-31T08:43:26;98396.97;;;11.08;100.00
19624;BME280;9959;49.798;9.928;2023-10-31T08:45:53;98394.28;;;11.08;100.00
19624;BME280;9959;49.798;9.928;2023-10-31T08:48:21;98395.66;;;11.11;99.26
19624;BME280;9959;49.798;9.928;2023-10-31T08:50:48;98391.09;;;11.11;99.12
19624;BME280;9959;49.798;9.928;2023-10-31T08:53:15;98398.25;;;11.23;98.98
19624;BME280;9959;49.798;9.928;2023-10-31T08:55:42;98400.09;;;11.56;96.71
19624;BME280;9959;49.798;9.928;2023-10-31T08:58:13;98396.63;;;11.38;95.85
19624;BME280;9959;49.798;9.928;2023-10-31T09:00:41;98416.88;;;11.41;94.31
19624;BME280;9959;49.798;9.928;2023-10-31T09:03:09;98397.81;;;11.64;94.50
19624;BME280;9959;49.798;9.928;2023-10-31T09:05:36;98400.75;;;12.01;91.45
19624;BME280;9959;49.798;9.928;2023-10-31T09:08:03;98394.63;;;12.11;90.19
19624;BME280;9959;49.798;9.928;2023-10-31T09:10:31;98419.50;;;12.13;89.38
19624;BME280;9959;49.798;9.928;2023-10-31T09:13:00;98414.94;;;12.40;87.48
19624;BME280;9959;49.798;9.928;2023-10-31T09:15:27;98413.75;;;12.53;86.00
19624;BME280;9959;49.798;9.928;2023-10-31T09:17:54;98412.50;;;12.39;86.57
19624;BME280;9959;49.798;9.928;2023-10-31T09:20:21;98422.56;;;12.43;85.50
19624;BME280;9959;49.798;9.928;2023-10-31T09:22:48;98413.81;;;12.36;84.67
19624;BME280;9959;49.798;9.928;2023-10-31T09:25:16;98411.59;;;12.82;82.97
19624;BME280;9959;49.798;9.928;2023-10-31T09:27:42;98411.13;;;12.90;80.91
19624;BME280;9959;49.798;9.928;2023-10-31T09:30:09;98418.16;;;12.91;81.64
19624;BME280;9959;49.798;9.928;2023-10-31T09:32:37;98415.81;;;13.32;80.58
19624;BME280;9959;49.798;9.928;2023-10-31T09:35:05;98421.47;;;12.98;79.54
19624;BME280;9959;49.798;9.928;2023-10-31T09:37:35;98422.41;;;12.82;81.27
19624;BME280;9959;49.798;9.928;2023-10-31T09:40:02;98420.31;;;12.62;81.30
19624;BME280;9959;49.798;9.928;2023-10-31T09:42:29;98418.34;;;12.52;83.33
19624;BME280;9959;49.798;9.928;2023-10-31T09:44:56;98434.63;;;12.63;81.31
19624;BME280;9959;49.798;9.928;2023-10-31T09:47:23;98428.91;;;12.86;78.67
19624;BME280;9959;49.798;9.928;2023-10-31T09:49:51;98431.91;;;12.58;81.54
19624;BME280;9959;49.798;9.928;2023-10-31T09:52:19;98431.94;;;12.63;79.81
19624;BME280;9959;49.798;9.928;2023-10-31T09:54:48;98428.03;;;12.75;80.38
19624;BME280;9959;49.798;9.928;2023-10-31T09:57:16;98433.81;;;12.62;80.31
19624;BME280;9959;49.798;9.928;2023-10-31T09:59:46;98426.59;;;12.68;81.40
19624;BME280;9959;49.798;9.928;2023-10-31T10:02:13;98423.50;;;12.86;79.38
19624;BME280;9959;49.798;9.928;2023-10-31T10:04:41;98418.94;;;12.60;81.56
19624;BME280;9959;49.798;9.928;2023-10-31T10:07:08;98415.47;;;12.37;83.82
19624;BME280;9959;49.798;9.928;2023-10-31T10:09:40;98415.41;;;12.59;82.54
19624;BME280;9959;49.798;9.928;2023-10-31T10:12:11;98417.72;;;12.45;82.32
19624;BME280;9959;49.798;9.928;2023-10-31T10:14:39;98412.94;;;12.52;81.64
19624;BME280;9959;49.798;9.928;2023-10-31T10:17:22;98420.03;;;12.37;82.68
19624;BME280;9959;49.798;9.928;2023-10-31T10:20:11;98430.19;;;12.03;82.65
19624;BME280;9959;49.798;9.928;2023-10-31T10:22:42;98431.09;;;12.35;82.64
19624;BME280;9959;49.798;9.928;2023-10-31T10:25:10;98425.59;;;12.25;83.20
19624;BME280;9959;49.798;9.928;2023-10-31T10:27:42;98423.00;;;12.35;83.20
19624;BME280;9959;49.798;9.928;2023-10-31T10:30:10;98430.94;;;12.20;81.55
19624;BME280;9959;49.798;9.928;2023-10-31T10:32:37;98440.47;;;12.06;81.15
19624;BME280;9959;49.798;9.928;2023-10-31T10:35:07;98420.56;;;12.12;81.64
19624;BME280;9959;49.798;9.928;2023-10-31T10:37:37;98435.06;;;12.06;82.48
19624;BME280;9959;49.798;9.928;2023-10-31T10:40:06;98442.53;;;12.20;81.25
19624;BME280;9959;49.798;9.928;2023-10-31T10:42:42;98442.97;;;12.34;80.93
19624;BME280;9959;49.798;9.928;2023-10-31T10:45:12;98439.09;;;12.25;81.64
19624;BME280;9959;49.798;9.928;2023-10-31T10:47:44;98441.59;;;12.10;82.14
19624;BME280;9959;49.798;9.928;2023-10-31T10:50:12;98447.13;;;12.20;81.30
19624;BME280;9959;49.798;9.928;2023-10-31T10:52:54;98449.00;;;12.41;79.90
19624;BME280;9959;49.798;9.928;2023-10-31T10:55:29;98441.97;;;12.40;81.33
19624;BME280;9959;49.798;9.928;2023-10-31T11:00:24;98451.81;;;12.08;81.42
19624;BME280;9959;49.798;9.928;2023-10-31T11:02:52;98451.00;;;11.85;82.59
19624;BME280;9959;49.798;9.928;2023-10-31T11:05:20;98451.50;;;12.04;83.39
19624;BME280;9959;49.798;9.928;2023-10-31T11:07:48;98449.91;;;12.25;81.31
19624;BME280;9959;49.798;9.928;2023-10-31T11:10:17;98453.16;;;12.27;80.73
19624;BME280;9959;49.798;9.928;2023-10-31T11:12:44;98458.88;;;12.31;79.42
19624;BME280;9959;49.798;9.928;2023-10-31T11:15:20;98453.28;;;12.37;79.57
19624;BME280;9959;49.798;9.928;2023-10-31T11:17:48;98448.44;;;12.66;77.62
19624;BME280;9959;49.798;9.928;2023-10-31T11:20:16;98458.38;;;12.61;76.57
19624;BME280;9959;49.798;9.928;2023-10-31T11:22:44;98458.50;;;12.71;77.52
19624;BME280;9959;49.798;9.928;2023-10-31T11:25:14;98466.16;;;12.79;77.43
19624;BME280;9959;49.798;9.928;2023-10-31T11:27:57;98469.50;;;12.91;75.67
19624;BME280;9959;49.798;9.928;2023-10-31T11:30:36;98465.84;;;13.29;74.50
19624;BME280;9959;49.798;9.928;2023-10-31T11:33:03;98468.06;;;13.74;72.03
19624;BME280;9959;49.798;9.928;2023-10-31T11:35:36;98484.00;;;12.80;73.88
19624;BME280;9959;49.798;9.928;2023-10-31T11:38:09;98476.97;;;12.79;76.30
19624;BME280;9959;49.798;9.928;2023-10-31T11:40:57;98488.38;;;12.86;75.23
19624;BME280;9959;49.798;9.928;2023-10-31T11:46:20;98483.75;;;13.08;74.80
19624;BME280;9959;49.798;9.928;2023-10-31T11:48:51;98490.81;;;12.61;75.52
19624;BME280;9959;49.798;9.928;2023-10-31T11:51:19;98485.69;;;12.86;75.55
19624;BME280;9959;49.798;9.928;2023-10-31T11:53:47;98497.38;;;12.92;75.38
19624;BME280;9959;49.798;9.928;2023-10-31T11:56:16;98499.72;;;12.83;75.36
19624;BME280;9959;49.798;9.928;2023-10-31T11:58:43;98495.78;;;12.69;76.63
19624;BME280;9959;49.798;9.928;2023-10-31T12:01:10;98504.19;;;12.72;75.75
19624;BME280;9959;49.798;9.928;2023-10-31T12:06:05;98512.69;;;13.08;73.55
19624;BME280;9959;49.798;9.928;2023-10-31T12:08:36;98507.28;;;12.81;75.04
19624;BME280;9959;49.798;9.928;2023-10-31T12:11:09;98510.91;;;13.18;74.39
19624;BME280;9959;49.798;9.928;2023-10-31T12:13:39;98514.41;;;12.92;75.08
19624;BME280;9959;49.798;9.928;2023-10-31T12:16:08;98516.66;;;13.00;74.62
19624;BME280;9959;49.798;9.928;2023-10-31T12:18:36;98522.97;;;12.62;74.02
19624;BME280;9959;49.798;9.928;2023-10-31T12:21:03;98517.38;;;12.69;74.19
19624;BME280;9959;49.798;9.928;2023-10-31T12:23:31;98525.72;;;12.89;73.79
19624;BME280;9959;49.798;9.928;2023-10-31T12:25:58;98514.97;;;12.94;72.71
19624;BME280;9959;49.798;9.928;2023-10-31T12:28:26;98534.50;;;13.01;72.50
19624;BME280;9959;49.798;9.928;2023-10-31T12:30:55;98535.75;;;13.15;71.62
19624;BME280;9959;49.798;9.928;2023-10-31T12:33:25;98541.38;;;13.14;70.96
19624;BME280;9959;49.798;9.928;2023-10-31T12:35:57;98539.91;;;13.01;72.36
19624;BME280;9959;49.798;9.928;2023-10-31T12:38:25;98543.19;;;13.03;71.60
19624;BME280;9959;49.798;9.928;2023-10-31T12:40:52;98541.28;;;13.26;71.50
19624;BME280;9959;49.798;9.928;2023-10-31T12:43:20;98536.47;;;13.33;71.11
19624;BME280;9959;49.798;9.928;2023-10-31T12:45:47;98544.75;;;13.21;71.05
19624;BME280;9959;49.798;9.928;2023-10-31T12:48:15;98538.69;;;13.14;70.53
19624;BME280;9959;49.798;9.928;2023-10-31T12:50:42;98547.47;;;13.53;69.90
19624;BME280;9959;49.798;9.928;2023-10-31T12:53:09;98545.31;;;13.55;68.68
19624;BME280;9959;49.798;9.928;2023-10-31T12:55:40;98544.88;;;13.68;68.65
19624;BME280;9959;49.798;9.928;2023-10-31T12:58:08;98545.44;;;13.70;69.29
19624;BME280;9959;49.798;9.928;2023-10-31T13:00:37;98539.75;;;14.09;67.87
19624;BME280;9959;49.798;9.928;2023-10-31T13:03:06;98542.09;;;13.95;67.71
19624;BME280;9959;49.798;9.928;2023-10-31T13:05:34;98547.16;;;13.81;67.30
19624;BME280;9959;49.798;9.928;2023-10-31T13:08:01;98544.06;;;13.68;67.83
19624;BME280;9959;49.798;9.928;2023-10-31T13:10:33;98547.19;;;13.86;66.61
19624;BME280;9959;49.798;9.928;2023-10-31T13:13:00;98550.03;;;14.07;66.49
19624;BME280;9959;49.798;9.928;2023-10-31T13:15:27;98554.09;;;13.67;66.62